Time;durP1;ratioP1;P1;durP2;ratioP2;P2;SDS_P1;SDS_P2;PMS_P1;PMS_P2;Temp;Humidity;BMP_temperature;BMP_pressure;BME280_temperature;BME280_humidity;BME280_pressure;Samples;Min_cycle;Max_cycle;Signal;HPM_P1;HPM_P2
2022/01/01 00:02:25;;;;;;;6.45;5.65;;;11.70;99.90;;;;;;5056985;28;20139;-83
2022/01/01 00:05:05;;;;;;;5.53;4.82;;;11.70;99.90;;;;;;5077598;28;20045;-84
2022/01/01 00:07:33;;;;;;;4.65;3.75;;;11.70;99.90;;;;;;5061489;28;20128;-84
2022/01/01 00:10:00;;;;;;;5.35;4.55;;;11.80;99.90;;;;;;5060395;28;20487;-84
2022/01/01 00:12:27;;;;;;;7.13;5.50;;;11.90;99.90;;;;;;5061902;28;20052;-84
2022/01/01 00:14:54;;;;;;;4.68;4.28;;;11.90;99.90;;;;;;5060367;28;20136;-83
2022/01/01 00:17:21;;;;;;;6.63;5.25;;;11.80;99.90;;;;;;5087456;28;20644;-83
2022/01/01 00:19:48;;;;;;;6.72;4.53;;;11.80;99.90;;;;;;5064003;28;20136;-83
2022/01/01 00:22:14;;;;;;;7.55;5.00;;;11.70;99.90;;;;;;5078863;28;20076;-83
2022/01/01 00:24:41;;;;;;;5.47;3.97;;;11.80;99.90;;;;;;5059225;28;20143;-83
2022/01/01 00:27:08;;;;;;;3.63;3.33;;;11.80;99.90;;;;;;5060505;28;20401;-83
2022/01/01 00:29:35;;;;;;;8.90;5.95;;;11.90;99.90;;;;;;5077768;28;20131;-83
2022/01/01 00:32:03;;;;;;;8.60;6.22;;;12.00;99.90;;;;;;5060161;28;20045;-83
2022/01/01 00:34:35;;;;;;;12.68;5.93;;;11.90;99.90;;;;;;5059817;28;20045;-84
2022/01/01 00:37:02;;;;;;;8.57;6.45;;;11.80;99.90;;;;;;5059227;28;20136;-83
2022/01/01 00:39:29;;;;;;;6.20;4.82;;;11.80;99.90;;;;;;5076999;28;20047;-83
2022/01/01 00:41:55;;;;;;;11.52;7.97;;;11.70;99.90;;;;;;5058896;28;20136;-83
2022/01/01 00:44:22;;;;;;;9.00;7.57;;;11.70;99.90;;;;;;5058586;28;20056;-84
2022/01/01 00:46:49;;;;;;;8.60;5.97;;;11.60;99.90;;;;;;5056597;28;20056;-83
2022/01/01 00:49:16;;;;;;;6.25;4.88;;;11.60;99.90;;;;;;5056881;28;20060;-83
2022/01/01 00:51:43;;;;;;;11.25;7.13;;;11.60;99.90;;;;;;5058023;28;20136;-83
2022/01/01 00:54:09;;;;;;;21.08;15.18;;;11.60;99.90;;;;;;5056255;28;20071;-83
2022/01/01 00:56:36;;;;;;;5.15;4.00;;;11.50;99.90;;;;;;5056406;28;20082;-83
2022/01/01 00:59:03;;;;;;;9.98;5.90;;;11.60;99.90;;;;;;5058831;28;20127;-83
2022/01/01 01:01:30;;;;;;;8.52;5.72;;;11.60;99.90;;;;;;5057649;28;20056;-83
2022/01/01 01:03:56;;;;;;;6.32;3.63;;;11.60;99.90;;;;;;5057805;28;20105;-83
2022/01/01 01:06:23;;;;;;;3.58;2.70;;;11.70;99.90;;;;;;5075919;28;20132;-83
2022/01/01 01:08:53;;;;;;;5.28;4.18;;;11.70;99.90;;;;;;5058079;28;20394;-84
2022/01/01 01:11:20;;;;;;;3.53;3.22;;;11.80;99.90;;;;;;5057324;28;20045;-83
2022/01/01 01:13:55;;;;;;;3.35;2.45;;;11.80;99.90;;;;;;5057704;28;20104;-82
2022/01/01 01:16:22;;;;;;;4.55;3.72;;;11.80;99.90;;;;;;5057130;28;20127;-83
2022/01/01 01:18:50;;;;;;;9.73;5.85;;;11.90;99.90;;;;;;5057083;28;20040;-83
2022/01/01 01:21:16;;;;;;;3.85;3.55;;;11.90;99.90;;;;;;5072213;28;20546;-83
2022/01/01 01:23:43;;;;;;;3.85;2.85;;;11.90;99.90;;;;;;5077144;28;20032;-84
2022/01/01 01:26:10;;;;;;;4.70;2.90;;;11.90;99.90;;;;;;5071546;28;20076;-84
2022/01/01 01:28:39;;;;;;;3.58;3.28;;;11.90;99.90;;;;;;5064894;28;20079;-84
2022/01/01 01:31:06;;;;;;;2.90;2.70;;;11.90;99.90;;;;;;5087393;28;20104;-84
2022/01/01 01:33:33;;;;;;;3.47;2.70;;;11.80;99.90;;;;;;5064870;28;20059;-83
2022/01/01 01:36:01;;;;;;;3.13;2.83;;;11.80;99.90;;;;;;5077919;28;20076;-83
2022/01/01 01:38:28;;;;;;;4.65;2.83;;;11.80;99.90;;;;;;5076026;28;20060;-84
2022/01/01 01:40:54;;;;;;;3.45;3.15;;;11.80;99.90;;;;;;5064168;28;20123;-84
2022/01/01 01:43:22;;;;;;;4.40;3.25;;;11.70;99.90;;;;;;5085109;28;20083;-84
2022/01/01 01:45:50;;;;;;;3.58;3.15;;;11.60;99.90;;;;;;5064789;28;20515;-84
2022/01/01 01:48:17;;;;;;;2.90;2.70;;;11.50;99.90;;;;;;5064171;28;20143;-84
2022/01/01 01:50:44;;;;;;;3.22;2.90;;;11.40;99.90;;;;;;5084458;28;20437;-84
2022/01/01 01:53:11;;;;;;;5.18;3.65;;;11.30;99.90;;;;;;5065273;28;20072;-84
2022/01/01 01:55:38;;;;;;;6.28;4.28;;;11.20;99.90;;;;;;5063255;28;20149;-84
2022/01/01 01:58:05;;;;;;;6.20;3.58;;;11.20;99.90;;;;;;5063339;28;20104;-84
2022/01/01 02:00:58;;;;;;;6.32;3.25;;;11.10;99.90;;;;;;5083029;28;20080;-84
2022/01/01 02:03:22;;;;;;;4.35;3.78;;;11.00;99.90;;;;;;5082080;28;20134;-84
2022/01/01 02:05:49;;;;;;;4.65;3.40;;;11.00;99.90;;;;;;5062703;28;20048;-83
2022/01/01 02:08:17;;;;;;;5.22;3.40;;;10.90;99.90;;;;;;5061609;28;20052;-84
2022/01/01 02:10:47;;;;;;;4.22;3.40;;;10.80;99.90;;;;;;5061835;28;20428;-83
2022/01/01 02:13:21;;;;;;;4.88;3.22;;;10.80;99.90;;;;;;5061370;28;20044;-83
2022/01/01 02:16:13;;;;;;;4.18;3.28;;;10.80;99.90;;;;;;5061802;28;20549;-84
2022/01/01 02:18:35;;;;;;;5.88;2.47;;;10.80;99.90;;;;;;5079272;28;20572;-84
2022/01/01 02:21:01;;;;;;;2.90;2.70;;;10.70;99.90;;;;;;5079271;28;20509;-83
2022/01/01 02:23:29;;;;;;;3.10;2.70;;;10.70;99.90;;;;;;5060849;28;20084;-83
2022/01/01 02:25:56;;;;;;;4.13;3.08;;;10.60;99.90;;;;;;5057438;28;20128;-83
2022/01/01 02:28:23;;;;;;;4.55;2.85;;;10.70;99.90;;;;;;5075162;28;20094;-83
2022/01/01 02:30:56;;;;;;;3.25;2.65;;;10.70;99.90;;;;;;5081684;28;20108;-83
2022/01/01 02:33:23;;;;;;;3.38;2.70;;;10.70;99.90;;;;;;5059774;28;20080;-83
2022/01/01 02:35:50;;;;;;;2.92;2.47;;;10.70;99.90;;;;;;5057869;28;20128;-83
2022/01/01 02:38:17;;;;;;;2.95;2.65;;;10.80;99.90;;;;;;5057706;28;20051;-82
2022/01/01 02:40:43;;;;;;;2.60;2.40;;;10.80;99.90;;;;;;5075264;28;20049;-83
2022/01/01 02:43:11;;;;;;;3.88;2.50;;;10.80;99.90;;;;;;5075288;28;20072;-83
2022/01/01 02:45:38;;;;;;;2.30;2.13;;;10.80;99.90;;;;;;5075232;28;20124;-83
2022/01/01 02:48:05;;;;;;;2.50;2.30;;;10.80;99.90;;;;;;5056834;28;20074;-83
2022/01/01 02:50:32;;;;;;;3.78;2.35;;;10.80;99.90;;;;;;5074969;28;20052;-83
2022/01/01 02:52:58;;;;;;;2.20;2.10;;;10.80;99.90;;;;;;5057485;28;20048;-83
2022/01/01 02:55:25;;;;;;;2.53;2.33;;;10.80;99.90;;;;;;5057592;28;20148;-83
2022/01/01 02:57:52;;;;;;;2.85;2.20;;;10.90;99.90;;;;;;5058005;28;20457;-83
2022/01/01 03:00:19;;;;;;;2.28;2.10;;;10.90;99.90;;;;;;5056938;28;20140;-83
2022/01/01 03:02:45;;;;;;;2.47;2.20;;;10.90;99.90;;;;;;5061359;28;20131;-83
2022/01/01 03:05:12;;;;;;;3.15;2.40;;;10.90;99.90;;;;;;5066587;28;20056;-83
2022/01/01 03:07:39;;;;;;;2.63;2.42;;;10.80;99.90;;;;;;5082438;28;20062;-83
2022/01/01 03:10:06;;;;;;;2.38;2.20;;;10.80;99.90;;;;;;5062391;28;20131;-83
2022/01/01 03:12:33;;;;;;;2.60;2.08;;;10.80;99.90;;;;;;5061005;28;20067;-83
2022/01/01 03:15:00;;;;;;;1.85;1.75;;;10.80;99.90;;;;;;5060217;28;20132;-83
2022/01/01 03:17:26;;;;;;;2.13;2.03;;;10.70;99.90;;;;;;5059546;28;20076;-83
2022/01/01 03:19:53;;;;;;;1.85;1.75;;;10.70;99.90;;;;;;5061928;28;20048;-84
2022/01/01 03:22:20;;;;;;;4.72;2.83;;;10.70;99.90;;;;;;5080690;28;20178;-84
2022/01/01 03:24:47;;;;;;;2.20;2.10;;;10.70;99.90;;;;;;5080210;28;20135;-84
2022/01/01 03:27:13;;;;;;;2.33;1.95;;;10.60;99.90;;;;;;5061420;28;20091;-84
2022/01/01 03:29:40;;;;;;;2.30;2.13;;;10.60;99.90;;;;;;5060747;28;20070;-83
2022/01/01 03:32:07;;;;;;;2.25;2.15;;;10.60;99.90;;;;;;5061513;28;20044;-84
2022/01/01 03:34:34;;;;;;;2.75;2.40;;;10.50;99.90;;;;;;5059878;28;20055;-83
2022/01/01 03:37:01;;;;;;;10.20;2.80;;;10.50;99.90;;;;;;5059776;28;20075;-83
2022/01/01 03:39:27;;;;;;;3.58;3.05;;;10.40;99.90;;;;;;5058154;28;20135;-83
2022/01/01 03:41:54;;;;;;;3.35;3.10;;;10.40;99.90;;;;;;5058761;28;20052;-83
2022/01/01 03:44:21;;;;;;;2.78;2.58;;;10.30;99.90;;;;;;5075599;28;20084;-83
2022/01/01 03:46:49;;;;;;;3.40;2.55;;;10.40;99.90;;;;;;5057837;28;20056;-83
2022/01/01 03:49:15;;;;;;;2.72;2.13;;;10.40;99.90;;;;;;5057663;28;20079;-83
2022/01/01 03:51:42;;;;;;;3.22;2.33;;;10.40;99.90;;;;;;5075363;28;20131;-83
2022/01/01 03:54:09;;;;;;;2.50;2.28;;;10.40;99.90;;;;;;5057910;28;20428;-83
2022/01/01 03:56:38;;;;;;;3.67;2.13;;;10.40;99.90;;;;;;5057797;28;20099;-83
2022/01/01 03:59:05;;;;;;;5.78;2.35;;;10.50;99.90;;;;;;5056980;28;20128;-83
2022/01/01 04:01:32;;;;;;;3.45;2.22;;;10.60;99.90;;;;;;5074885;28;20044;-83
2022/01/01 04:03:59;;;;;;;2.35;2.15;;;10.60;99.90;;;;;;5057051;28;20487;-83
2022/01/01 04:06:26;;;;;;;3.13;2.42;;;10.60;99.90;;;;;;5074730;28;20158;-83
2022/01/01 04:08:53;;;;;;;3.70;2.70;;;10.50;99.90;;;;;;5075306;28;20135;-83
2022/01/01 04:11:21;;;;;;;6.72;2.80;;;10.40;99.90;;;;;;5056021;28;20135;-83
2022/01/01 04:13:48;;;;;;;2.67;2.47;;;10.50;99.90;;;;;;5073506;28;20127;-82
2022/01/01 04:16:17;;;;;;;7.88;2.45;;;10.60;99.90;;;;;;5073173;28;20139;-83
2022/01/01 04:18:45;;;;;;;3.90;2.10;;;10.60;99.90;;;;;;5056007;28;20102;-83
2022/01/01 04:21:13;;;;;;;2.05;1.95;;;10.50;99.90;;;;;;5055828;28;20098;-83
2022/01/01 04:23:41;;;;;;;2.00;1.90;;;10.70;99.90;;;;;;5073374;28;20143;-83
2022/01/01 04:26:08;;;;;;;1.75;1.65;;;10.70;99.90;;;;;;5055412;28;20061;-83
2022/01/01 04:28:36;;;;;;;1.65;1.55;;;10.80;99.90;;;;;;5055603;28;20131;-83
2022/01/01 04:31:03;;;;;;;2.00;1.90;;;10.80;99.90;;;;;;5058257;28;20084;-83
2022/01/01 04:33:30;;;;;;;2.72;1.67;;;10.80;99.90;;;;;;5066881;28;20047;-83
2022/01/01 04:35:57;;;;;;;2.00;1.70;;;10.70;99.90;;;;;;5083141;28;20135;-84
2022/01/01 04:40:56;;;;;;;2.17;1.85;;;10.60;99.90;;;;;;5078079;28;20086;-84
2022/01/01 04:43:23;;;;;;;2.13;1.88;;;10.60;99.90;;;;;;5060391;28;20111;-83
2022/01/01 04:45:49;;;;;;;2.75;1.75;;;10.70;99.90;;;;;;5059480;28;20127;-84
2022/01/01 04:48:16;;;;;;;1.80;1.70;;;10.80;99.90;;;;;;5059379;28;20467;-83
2022/01/01 04:50:43;;;;;;;2.70;1.50;;;10.80;99.90;;;;;;5059283;28;20053;-84
2022/01/01 04:53:15;;;;;;;1.38;1.27;;;10.80;99.90;;;;;;5058791;28;20048;-83
2022/01/01 04:55:42;;;;;;;1.52;1.42;;;10.70;99.90;;;;;;5059900;28;20191;-84
2022/01/01 04:58:09;;;;;;;5.57;4.40;;;10.70;99.90;;;;;;5079096;28;20115;-84
2022/01/01 05:00:36;;;;;;;6.88;5.00;;;10.70;99.90;;;;;;5079075;28;20108;-84
2022/01/01 05:03:02;;;;;;;15.88;10.77;;;10.60;99.90;;;;;;5061170;28;20049;-84
2022/01/01 05:05:29;;;;;;;20.65;12.10;;;10.60;99.90;;;;;;5060209;28;20491;-84
2022/01/01 05:07:56;;;;;;;13.38;9.20;;;10.60;99.90;;;;;;5059447;28;20573;-84
2022/01/01 05:10:26;;;;;;;8.05;6.82;;;10.50;99.90;;;;;;5077725;28;20486;-84
2022/01/01 05:12:52;;;;;;;5.68;4.50;;;10.40;99.90;;;;;;5084212;28;20064;-83
2022/01/01 05:15:19;;;;;;;7.07;3.50;;;10.30;99.90;;;;;;5081881;28;20072;-84
2022/01/01 05:17:46;;;;;;;4.65;2.85;;;10.10;99.90;;;;;;5080515;28;20062;-83
2022/01/01 05:20:13;;;;;;;3.05;2.35;;;9.90;99.90;;;;;;5069684;28;20127;-84
2022/01/01 05:22:39;;;;;;;2.35;2.25;;;9.90;99.90;;;;;;5082748;28;20139;-84
2022/01/01 05:25:07;;;;;;;4.28;2.92;;;9.80;99.90;;;;;;5081958;28;20127;-84
2022/01/01 05:27:35;;;;;;;3.45;2.83;;;9.60;99.90;;;;;;5072159;28;20075;-83
2022/01/01 05:30:04;;;;;;;8.88;7.90;;;9.50;99.90;;;;;;5080240;28;20053;-84
2022/01/01 05:32:31;;;;;;;6.85;6.00;;;9.40;99.90;;;;;;5069954;28;20416;-84
2022/01/01 05:34:58;;;;;;;4.72;4.20;;;9.20;99.90;;;;;;5064827;28;20446;-84
2022/01/01 05:37:25;;;;;;;5.53;4.60;;;9.20;99.90;;;;;;5064159;28;20131;-83
2022/01/01 05:39:51;;;;;;;3.60;3.30;;;9.10;99.90;;;;;;5064115;28;20132;-84
2022/01/01 05:42:18;;;;;;;4.55;3.08;;;9.00;99.90;;;;;;5059255;28;20132;-83
2022/01/01 05:44:45;;;;;;;3.40;3.10;;;9.00;99.90;;;;;;5075979;28;20516;-82
2022/01/01 05:47:12;;;;;;;3.22;3.03;;;9.00;99.90;;;;;;5058255;28;20135;-82
2022/01/01 05:49:39;;;;;;;4.88;2.97;;;8.90;99.90;;;;;;5077665;28;20135;-83
2022/01/01 05:52:05;;;;;;;3.70;3.42;;;8.90;99.90;;;;;;5062903;28;20098;-83
2022/01/01 05:54:32;;;;;;;7.22;5.43;;;8.90;99.90;;;;;;5068719;28;20096;-83
2022/01/01 05:57:00;;;;;;;6.82;4.65;;;8.90;99.90;;;;;;5065894;28;20127;-83
2022/01/01 05:59:27;;;;;;;3.55;2.72;;;9.00;99.90;;;;;;5062174;28;20112;-83
2022/01/01 06:01:54;;;;;;;5.25;2.90;;;9.00;99.90;;;;;;5079006;28;20048;-83
2022/01/01 06:04:21;;;;;;;3.58;3.05;;;9.10;99.90;;;;;;5061167;28;20063;-83
2022/01/01 06:06:48;;;;;;;7.88;6.43;;;9.10;99.90;;;;;;5078789;28;20493;-83
2022/01/01 06:09:15;;;;;;;4.60;4.20;;;9.10;99.90;;;;;;5060971;28;20509;-82
2022/01/01 06:11:41;;;;;;;4.03;3.03;;;9.10;99.90;;;;;;5061415;28;20048;-83
2022/01/01 06:14:08;;;;;;;6.53;3.05;;;9.10;99.90;;;;;;5060728;28;20511;-82
2022/01/01 06:16:35;;;;;;;3.95;2.88;;;9.10;99.90;;;;;;5060922;28;20503;-83
2022/01/01 06:19:01;;;;;;;3.88;2.88;;;9.10;99.90;;;;;;5060236;28;20131;-83
2022/01/01 06:21:28;;;;;;;5.88;5.30;;;9.10;99.90;;;;;;5077065;28;20140;-83
2022/01/01 06:23:55;;;;;;;3.42;3.13;;;9.10;99.90;;;;;;5076728;28;20132;-83
2022/01/01 06:26:21;;;;;;;6.05;2.58;;;9.10;99.90;;;;;;5077661;28;20048;-83
2022/01/01 06:28:48;;;;;;;2.75;2.55;;;9.10;99.90;;;;;;5059794;28;20152;-83
2022/01/01 06:31:15;;;;;;;2.78;2.15;;;9.20;99.90;;;;;;5059297;28;20052;-82
2022/01/01 06:33:42;;;;;;;2.42;2.20;;;9.20;99.90;;;;;;5061142;28;20558;-83
2022/01/01 06:36:12;;;;;;;3.28;2.50;;;9.20;99.90;;;;;;5082559;28;20049;-83
2022/01/01 06:38:43;;;;;;;3.95;3.42;;;9.20;99.90;;;;;;5081791;28;20045;-83
2022/01/01 06:41:10;;;;;;;4.75;2.72;;;9.30;99.90;;;;;;5080852;28;20133;-83
2022/01/01 06:43:38;;;;;;;2.60;1.98;;;9.30;99.90;;;;;;5062601;28;20481;-82
2022/01/01 06:46:06;;;;;;;2.17;2.08;;;9.30;99.90;;;;;;5062369;28;20095;-83
2022/01/01 06:48:34;;;;;;;2.50;2.20;;;9.30;99.90;;;;;;5079536;28;20410;-83
2022/01/01 06:51:01;;;;;;;5.30;2.33;;;9.30;99.90;;;;;;5061373;28;20052;-83
2022/01/01 06:53:29;;;;;;;2.25;2.05;;;9.30;99.90;;;;;;5060703;28;20131;-83
2022/01/01 06:55:55;;;;;;;2.97;2.28;;;9.30;99.90;;;;;;5060843;28;20493;-83
2022/01/01 06:58:22;;;;;;;2.65;2.45;;;9.40;99.90;;;;;;5060167;28;20079;-83
2022/01/01 07:00:49;;;;;;;3.40;2.60;;;9.40;99.90;;;;;;5078087;28;20099;-83
2022/01/01 07:03:22;;;;;;;5.18;2.90;;;9.40;99.90;;;;;;5060018;28;20088;-83
2022/01/01 07:05:49;;;;;;;2.40;2.30;;;9.40;99.90;;;;;;5059654;28;20044;-83
2022/01/01 07:08:17;;;;;;;3.65;2.30;;;9.40;99.90;;;;;;5077349;28;20040;-82
2022/01/01 07:10:45;;;;;;;4.22;2.38;;;9.50;99.90;;;;;;5059158;28;20044;-83
2022/01/01 07:13:16;;;;;;;4.97;2.10;;;9.40;99.90;;;;;;5076657;28;20135;-83
2022/01/01 07:15:43;;;;;;;4.93;2.47;;;9.40;99.90;;;;;;5076876;28;20123;-83
2022/01/01 07:18:10;;;;;;;3.15;2.30;;;9.50;99.90;;;;;;5058132;28;20136;-83
2022/01/01 07:20:37;;;;;;;2.50;2.20;;;9.50;99.90;;;;;;5076668;28;20479;-83
2022/01/01 07:23:03;;;;;;;2.28;2.17;;;9.50;99.90;;;;;;5076460;28;20155;-83
2022/01/01 07:25:30;;;;;;;3.83;2.40;;;9.50;99.90;;;;;;5076670;28;20139;-83
2022/01/01 07:27:57;;;;;;;3.60;2.60;;;9.50;99.90;;;;;;5058925;28;20083;-83
2022/01/01 07:30:24;;;;;;;3.20;2.17;;;9.50;99.90;;;;;;5075459;28;20155;-82
2022/01/01 07:32:51;;;;;;;3.35;2.92;;;9.40;99.90;;;;;;5074262;28;20185;-82
2022/01/01 07:35:19;;;;;;;3.00;2.40;;;9.40;99.90;;;;;;5059853;28;20131;-83
2022/01/01 07:37:46;;;;;;;3.30;2.50;;;9.50;99.90;;;;;;5066575;28;20044;-83
2022/01/01 07:40:15;;;;;;;3.25;2.88;;;9.60;99.90;;;;;;5068351;28;20108;-83
2022/01/01 07:42:43;;;;;;;2.85;2.40;;;9.50;99.90;;;;;;5063178;28;20525;-83
2022/01/01 07:45:12;;;;;;;5.63;2.88;;;9.60;99.90;;;;;;5062104;28;20471;-83
2022/01/01 07:47:40;;;;;;;3.72;2.67;;;9.50;99.90;;;;;;5061434;28;20049;-83
2022/01/01 07:50:08;;;;;;;4.05;3.67;;;9.60;99.90;;;;;;5061467;28;20110;-83
2022/01/01 07:52:35;;;;;;;7.28;5.85;;;9.60;99.90;;;;;;5060378;28;20052;-83
2022/01/01 07:55:02;;;;;;;7.07;6.18;;;9.70;99.90;;;;;;5061119;28;20112;-83
2022/01/01 07:57:29;;;;;;;9.30;6.20;;;9.60;99.90;;;;;;5060951;28;20068;-83
2022/01/01 07:59:56;;;;;;;11.43;8.38;;;9.70;99.90;;;;;;5078094;28;20123;-83
2022/01/01 08:02:23;;;;;;;12.52;9.35;;;9.70;99.90;;;;;;5078499;28;20047;-83
2022/01/01 08:04:50;;;;;;;9.70;6.22;;;9.70;99.90;;;;;;5061103;28;20044;-83
2022/01/01 08:07:17;;;;;;;6.25;3.80;;;9.70;99.90;;;;;;5060561;28;20512;-83
2022/01/01 08:10:05;;;;;;;5.82;2.88;;;9.80;99.90;;;;;;5077746;28;20048;-83
2022/01/01 08:12:32;;;;;;;3.33;2.65;;;9.80;99.90;;;;;;5080210;28;20123;-83
2022/01/01 08:14:59;;;;;;;4.03;2.60;;;9.80;99.90;;;;;;5080524;28;20060;-83
2022/01/01 08:17:26;;;;;;;2.50;2.28;;;9.80;99.90;;;;;;5061951;28;20140;-83
2022/01/01 08:19:52;;;;;;;4.32;2.85;;;9.80;99.90;;;;;;5061104;28;20041;-83
2022/01/01 08:22:19;;;;;;;3.45;2.25;;;9.80;99.90;;;;;;5061982;28;20132;-83
2022/01/01 08:24:46;;;;;;;6.95;2.97;;;9.70;99.90;;;;;;5078789;28;20132;-83
2022/01/01 08:27:13;;;;;;;6.78;3.17;;;9.80;99.90;;;;;;5060423;28;20087;-83
2022/01/01 08:29:40;;;;;;;5.78;3.85;;;9.90;99.90;;;;;;5060591;28;20052;-83
2022/01/01 08:32:07;;;;;;;11.82;6.47;;;9.90;99.90;;;;;;5059793;28;20083;-83
2022/01/01 08:34:34;;;;;;;8.32;5.72;;;10.00;99.90;;;;;;5059063;28;20053;-83
2022/01/01 08:37:01;;;;;;;4.05;2.70;;;10.00;99.90;;;;;;5077303;28;20143;-83
2022/01/01 08:39:28;;;;;;;4.85;3.25;;;10.10;99.90;;;;;;5058559;28;20131;-83
2022/01/01 08:41:54;;;;;;;3.45;3.10;;;10.20;99.90;;;;;;5076317;28;20556;-83
2022/01/01 08:44:21;;;;;;;3.53;3.13;;;10.20;99.90;;;;;;5057925;28;20091;-83
2022/01/01 08:46:49;;;;;;;3.42;3.03;;;10.20;99.90;;;;;;5064992;28;20540;-83
2022/01/01 08:49:16;;;;;;;5.93;3.17;;;10.20;99.90;;;;;;5077361;28;20080;-83
2022/01/01 08:51:44;;;;;;;4.20;2.60;;;10.20;99.90;;;;;;5059501;28;20052;-83
2022/01/01 08:54:13;;;;;;;4.97;3.55;;;10.20;99.90;;;;;;5057843;28;20106;-83
2022/01/01 08:56:40;;;;;;;4.50;3.58;;;10.20;99.90;;;;;;5057982;28;20061;-83
2022/01/01 08:59:07;;;;;;;3.78;3.35;;;10.20;99.90;;;;;;5075910;28;20123;-83
2022/01/01 09:01:34;;;;;;;3.70;3.20;;;10.30;99.90;;;;;;5075632;28;20140;-83
2022/01/01 09:04:01;;;;;;;5.88;3.75;;;10.30;99.90;;;;;;5075839;28;20091;-83
2022/01/01 09:06:27;;;;;;;4.60;4.13;;;10.40;99.90;;;;;;5057680;28;20132;-83
2022/01/01 09:08:54;;;;;;;6.25;4.22;;;10.40;99.90;;;;;;5073770;28;20056;-83
2022/01/01 09:11:22;;;;;;;7.38;5.10;;;10.40;99.90;;;;;;5076999;28;20095;-83
2022/01/01 09:13:49;;;;;;;12.88;9.15;;;10.50;99.90;;;;;;5070545;28;20079;-83
2022/01/01 09:16:17;;;;;;;18.40;12.30;;;10.60;99.90;;;;;;5061380;28;20045;-83
2022/01/01 09:18:47;;;;;;;32.42;18.63;;;10.70;99.90;;;;;;5072893;28;20047;-83
2022/01/01 09:21:14;;;;;;;23.30;13.68;;;10.70;99.90;;;;;;5060327;28;20515;-83
2022/01/01 09:23:41;;;;;;;26.60;16.33;;;10.70;99.90;;;;;;5077173;28;20053;-83
2022/01/01 09:26:08;;;;;;;23.15;14.45;;;10.70;99.90;;;;;;5089138;28;20107;-83
2022/01/01 09:28:35;;;;;;;18.83;10.20;;;10.70;99.90;;;;;;5061181;28;20122;-83
2022/01/01 09:31:02;;;;;;;22.80;13.10;;;10.70;99.90;;;;;;5078450;28;20136;-84
2022/01/01 09:33:29;;;;;;;18.92;12.65;;;10.70;99.90;;;;;;5062235;28;20139;-84
2022/01/01 09:35:57;;;;;;;26.55;16.45;;;10.80;99.90;;;;;;5061051;28;20083;-83
2022/01/01 09:38:24;;;;;;;29.48;17.75;;;10.90;99.90;;;;;;5078077;28;20520;-83
2022/01/01 09:40:55;;;;;;;29.08;16.85;;;10.90;99.90;;;;;;5060113;28;20083;-83
2022/01/01 09:43:23;;;;;;;26.83;15.65;;;10.90;99.90;;;;;;5060577;28;20420;-83
2022/01/01 09:45:51;;;;;;;24.65;13.93;;;11.00;99.90;;;;;;5059809;28;20053;-83
2022/01/01 09:48:21;;;;;;;22.95;13.77;;;11.00;99.90;;;;;;5059603;28;20476;-83
2022/01/01 09:50:54;;;;;;;18.42;11.80;;;11.00;99.90;;;;;;5079778;28;20079;-83
2022/01/01 09:53:24;;;;;;;19.27;10.98;;;11.10;99.90;;;;;;5080116;28;20045;-83
2022/01/01 09:55:52;;;;;;;20.70;11.98;;;11.10;99.90;;;;;;5079871;28;20076;-83
2022/01/01 09:58:26;;;;;;;15.88;10.95;;;11.20;99.90;;;;;;5064272;28;20432;-83
2022/01/01 10:00:54;;;;;;;15.70;10.70;;;11.30;99.90;;;;;;5064473;28;20052;-83
2022/01/01 10:03:37;;;;;;;14.85;9.48;;;11.40;99.90;;;;;;5063576;28;20401;-83
2022/01/01 10:06:08;;;;;;;15.10;10.05;;;11.60;99.90;;;;;;5081219;28;20425;-83
2022/01/01 10:08:39;;;;;;;16.77;10.20;;;11.60;99.90;;;;;;5081059;28;20132;-83
2022/01/01 10:11:08;;;;;;;17.95;10.95;;;11.70;99.90;;;;;;5081413;28;20116;-83
2022/01/01 10:13:38;;;;;;;19.38;10.60;;;11.60;99.90;;;;;;5079879;28;20131;-83
2022/01/01 10:16:07;;;;;;;16.20;10.75;;;11.70;99.90;;;;;;5061962;28;20072;-83
2022/01/01 10:18:37;;;;;;;20.35;11.27;;;11.70;99.90;;;;;;5061809;28;20083;-83
2022/01/01 10:21:09;;;;;;;15.98;10.50;;;11.70;99.90;;;;;;5079968;28;20132;-83
2022/01/01 10:23:38;;;;;;;14.10;9.77;;;11.70;99.90;;;;;;5062082;28;20052;-83
2022/01/01 10:29:28;;;;;;;17.40;10.32;;;11.70;99.90;;;;;;5079125;28;20080;-83
2022/01/01 10:31:58;;;;;;;14.00;9.15;;;11.70;99.90;;;;;;5061039;28;20478;-83
2022/01/01 10:34:31;;;;;;;18.63;10.43;;;11.70;99.90;;;;;;5060952;28;20045;-83
2022/01/01 10:36:58;;;;;;;17.85;10.60;;;11.70;99.90;;;;;;5078916;28;20084;-83
2022/01/01 10:39:27;;;;;;;18.02;11.23;;;11.70;99.90;;;;;;5060687;28;20087;-83
2022/01/01 10:41:59;;;;;;;19.58;11.45;;;11.80;99.90;;;;;;5060681;28;20127;-83
2022/01/01 10:44:30;;;;;;;21.77;13.40;;;11.90;99.90;;;;;;5082487;28;20112;-83
2022/01/01 10:46:59;;;;;;;22.20;14.98;;;11.90;99.90;;;;;;5070825;28;20044;-83
2022/01/01 10:49:34;;;;;;;37.75;23.27;;;12.10;99.90;;;;;;5083118;28;20072;-83
2022/01/01 10:52:24;;;;;;;36.83;22.38;;;12.20;99.90;;;;;;5062999;28;20063;-83
2022/01/01 10:54:56;;;;;;;39.30;22.52;;;12.40;99.90;;;;;;5063325;28;20131;-84
2022/01/01 10:57:25;;;;;;;16.63;9.13;;;12.60;99.90;;;;;;5080608;28;20084;-83
2022/01/01 11:00:03;;;;;;;28.23;15.50;;;12.70;99.90;;;;;;5062043;28;20094;-82
2022/01/01 11:02:35;;;;;;;43.40;25.55;;;12.80;99.90;;;;;;5062285;28;20136;-84
2022/01/01 11:05:03;;;;;;;38.92;21.15;;;12.90;99.90;;;;;;5076511;28;20060;-82
2022/01/01 11:07:31;;;;;;;11.75;6.85;;;13.00;99.90;;;;;;5057204;28;20090;-83
2022/01/01 11:09:59;;;;;;;5.60;3.30;;;13.00;99.90;;;;;;5056490;28;20139;-83
2022/01/01 11:12:27;;;;;;;7.47;5.70;;;13.00;99.90;;;;;;5075135;28;20132;-82
2022/01/01 11:14:55;;;;;;;11.88;6.50;;;13.10;99.90;;;;;;5057596;28;20127;-83
2022/01/01 11:17:23;;;;;;;10.90;8.63;;;13.10;99.90;;;;;;5075524;28;20135;-83
2022/01/01 11:19:51;;;;;;;4.00;3.38;;;13.20;99.90;;;;;;5075384;28;20135;-83
2022/01/01 11:22:18;;;;;;;2.95;2.65;;;13.10;99.90;;;;;;5057710;28;20546;-83
2022/01/01 11:24:46;;;;;;;3.17;2.65;;;12.90;99.90;;;;;;5057781;28;20087;-83
2022/01/01 11:27:14;;;;;;;3.85;2.50;;;12.90;99.90;;;;;;5058295;28;20044;-83
2022/01/01 11:29:49;;;;;;;3.20;2.38;;;13.10;99.90;;;;;;5063551;28;20103;-84
2022/01/01 11:32:28;;;;;;;3.80;2.05;;;13.20;99.90;;;;;;5063453;28;20131;-83
2022/01/01 11:34:56;;;;;;;3.90;2.30;;;13.30;99.90;;;;;;5080512;28;20076;-83
2022/01/01 11:37:23;;;;;;;4.57;2.55;;;13.40;99.90;;;;;;5062647;28;20053;-83
2022/01/01 11:39:56;;;;;;;3.92;2.50;;;13.30;99.90;;;;;;5068346;28;20045;-83
2022/01/01 11:42:23;;;;;;;4.65;2.30;;;13.50;99.90;;;;;;5062642;28;20135;-83
2022/01/01 11:44:53;;;;;;;5.93;2.63;;;13.40;99.90;;;;;;5060180;28;20055;-83
2022/01/01 11:47:24;;;;;;;3.80;2.33;;;13.50;99.90;;;;;;5059506;28;20480;-83
2022/01/01 11:49:52;;;;;;;3.88;2.55;;;13.50;99.90;;;;;;5078068;28;20112;-83
2022/01/01 11:52:40;;;;;;;6.00;2.50;;;13.50;99.90;;;;;;5077480;28;20094;-83
2022/01/01 11:55:11;;;;;;;4.65;2.58;;;13.50;99.90;;;;;;5058806;28;20080;-83
2022/01/01 11:57:39;;;;;;;4.50;1.88;;;13.60;99.90;;;;;;5059655;28;20123;-83
2022/01/01 12:00:12;;;;;;;5.00;2.13;;;13.70;99.90;;;;;;5081589;28;20083;-83
2022/01/01 12:02:43;;;;;;;4.93;2.40;;;13.70;99.90;;;;;;5061083;28;20457;-84
2022/01/01 12:05:22;;;;;;;3.40;2.30;;;13.70;99.90;;;;;;5078894;28;20079;-84
2022/01/01 12:07:52;;;;;;;4.05;2.00;;;13.70;99.90;;;;;;5062430;28;20126;-84
2022/01/01 12:10:28;;;;;;;2.35;2.15;;;13.60;99.90;;;;;;5062116;28;20111;-83
2022/01/01 12:13:09;;;;;;;4.15;2.70;;;13.60;99.90;;;;;;5062315;28;20076;-84
2022/01/01 12:15:48;;;;;;;4.53;2.40;;;13.50;99.90;;;;;;5063056;28;20048;-84
2022/01/01 12:18:23;;;;;;;3.42;2.50;;;13.40;99.90;;;;;;5062827;28;20040;-84
2022/01/01 12:21:02;;;;;;;4.60;2.20;;;13.40;99.90;;;;;;5061737;28;20083;-84
2022/01/01 12:23:37;;;;;;;2.95;2.20;;;13.40;99.90;;;;;;5077932;28;20075;-83
2022/01/01 12:26:09;;;;;;;6.13;2.50;;;13.30;99.90;;;;;;5077555;28;20112;-84
2022/01/01 12:28:37;;;;;;;4.00;2.42;;;13.30;99.90;;;;;;5059669;28;20127;-83
2022/01/01 12:31:15;;;;;;;4.20;2.10;;;13.30;99.90;;;;;;5058218;28;20051;-84
2022/01/01 12:33:52;;;;;;;6.40;2.55;;;13.30;99.90;;;;;;5059662;28;20063;-84
2022/01/01 12:36:21;;;;;;;7.05;2.45;;;13.30;99.90;;;;;;5058281;28;20078;-84
2022/01/01 12:38:55;;;;;;;4.30;1.95;;;13.10;99.90;;;;;;5076349;28;20128;-83
2022/01/01 12:41:32;;;;;;;4.00;2.47;;;13.20;99.90;;;;;;5075996;28;20589;-83
2022/01/01 12:44:04;;;;;;;6.15;2.35;;;13.20;99.90;;;;;;5076536;28;20131;-83
2022/01/01 12:46:34;;;;;;;5.10;2.45;;;13.20;99.90;;;;;;5057601;28;20562;-83
2022/01/01 12:49:05;;;;;;;3.63;1.77;;;13.20;99.90;;;;;;5058327;28;20095;-83
2022/01/01 12:51:37;;;;;;;4.93;2.17;;;13.20;99.90;;;;;;5057359;28;20056;-83
2022/01/01 12:54:07;;;;;;;4.90;2.10;;;13.30;99.90;;;;;;5057145;28;20493;-83
2022/01/01 12:56:36;;;;;;;4.32;1.98;;;13.20;99.90;;;;;;5057427;28;20596;-84
2022/01/01 12:59:08;;;;;;;4.72;1.90;;;13.20;99.90;;;;;;5055872;28;20127;-83